Thayer, Illinois
Current Conditions -  °F | °C
As of 6:52 PM on Monday 20 Oct 2014 (Local Time) from KSPI Reporting Station
Clear Clear  
Wind Chill: 61°   Ceiling: Unl
Heat Index: 61°   Visibility: 10mi
Dew Point: 43°   Wind: 5mph
Humidity: 52%   Direction: 310°NW
Pressure: 29.98"   Gusts: NA
Location:  39.54°N, 89.76°W
Report Text: KSPI 202352Z 31004KT 10SM CLR 16/06 A2998 RMK AO2 SLP150 T01610061 10228 20161 53016
Loading
Personal Weather Stations






























Interactive Weather Map
Tropical Storm Tracking
New forecast layout! Learn more

10-Day Weather Forecast

Advertisements
Track Severe Weather on mobile